This is the latest recevied weather packets stored in our database for station/object OM4MO-10. If no packets are shown the sender has not sent any weather packets the latest 10 day(s).
| Time | Temp. | Humidity | Pressure | Rain* | Wind** | Luminosity | Snow |
|---|---|---|---|---|---|---|---|
| 1777521041 | 1.11° C | 89% | 1023.6 hPa | - | - | - | - |
| 1777519841 | 0.56° C | 91% | 1023.5 hPa | - | - | - | - |
| 1777518641 | 0° C | 100% | 1022.8 hPa | - | - | - | - |
| 1777517441 | 0° C | 97% | 1023.1 hPa | - | - | - | - |
| 1777516241 | 1.11° C | 81% | 1024.5 hPa | - | - | - | - |
| 1777515041 | 1.67° C | 87% | 1023.6 hPa | - | - | - | - |
| 1777513841 | 0° C | 93% | 1023.5 hPa | - | - | - | - |
| 1777512641 | 0° C | 91% | 1024.2 hPa | - | - | - | - |
| 1777511440 | 2.22° C | 68% | 1026.7 hPa | - | - | - | - |
| 1777510240 | 1.67° C | 79% | 1025.9 hPa | - | - | - | - |
| 1777509040 | 2.78° C | 73% | 1026.5 hPa | - | - | - | - |
| 1777507840 | 2.22° C | 84% | 1025.2 hPa | - | - | - | - |
| 1777506640 | 1.11° C | 89% | 1025.6 hPa | - | - | - | - |
| 1777505440 | 2.22° C | 71% | 1027.8 hPa | - | - | - | - |
| 1777504240 | 3.89° C | 62% | 1028.9 hPa | - | - | - | - |
| 1777503040 | 3.33° C | 54% | 1030.7 hPa | - | - | - | - |
| 1777501840 | 3.89° C | 53% | 1030.9 hPa | - | - | - | - |
| 1777500639 | 3.89° C | 49% | 1032.2 hPa | - | - | - | - |
| 1777499439 | 3.89° C | 48% | 1032.8 hPa | - | - | - | - |
| 1777498239 | 4.44° C | 45% | 1033.8 hPa | - | - | - | - |
| 1777497039 | 5.56° C | 43% | 1034.1 hPa | - | - | - | - |
| 1777495839 | 5.56° C | 41% | 1035.3 hPa | - | - | - | - |
| 1777494639 | 6.11° C | 39% | 1036.3 hPa | - | - | - | - |
| 1777493439 | 6.11° C | 35% | 1037.4 hPa | - | - | - | - |
| 1777492239 | 6.11° C | 34% | 1038.1 hPa | - | - | - | - |
* Rain since midnight (hover to see other rain measurements)
** Current wind speed in m/s (hover to see current wind gust speed)